Time;durP1;ratioP1;P1;durP2;ratioP2;P2;SDS_P1;SDS_P2;PMS_P1;PMS_P2;Temp;Humidity;BMP_temperature;BMP_pressure;BME280_temperature;BME280_humidity;BME280_pressure;Samples;Min_cycle;Max_cycle;Signal;HPM_P1;HPM_P2
2021/06/08 00:00:36;;;;;;;8.68;4.03;;;27.30;53.60;;;;;;4936086;28;20391;-61
2021/06/08 00:03:03;;;;;;;5.38;3.15;;;27.40;53.70;;;;;;4953738;28;20030;-62
2021/06/08 00:05:29;;;;;;;6.85;3.83;;;27.30;53.60;;;;;;4953433;28;20035;-60
2021/06/08 00:07:55;;;;;;;7.78;4.00;;;27.30;53.60;;;;;;4935909;29;20035;-63
2021/06/08 00:10:22;;;;;;;7.60;3.80;;;27.30;53.60;;;;;;4936035;29;20067;-62
2021/06/08 00:12:48;;;;;;;8.68;4.28;;;27.30;53.50;;;;;;4952466;28;20039;-62
2021/06/08 00:15:14;;;;;;;8.05;3.90;;;27.30;53.50;;;;;;4935704;29;20082;-62
2021/06/08 00:17:41;;;;;;;6.60;3.92;;;27.30;53.50;;;;;;4953542;29;20134;-62
2021/06/08 00:20:08;;;;;;;5.75;3.80;;;27.30;53.50;;;;;;4926927;29;20050;-62
2021/06/08 00:22:34;;;;;;;7.13;4.10;;;27.30;53.40;;;;;;4949083;29;20502;-62
2021/06/08 00:25:00;;;;;;;8.85;3.83;;;27.30;53.30;;;;;;4958734;29;20050;-60
2021/06/08 00:27:26;;;;;;;5.47;3.88;;;27.30;53.40;;;;;;4959119;28;20522;-63
2021/06/08 00:29:53;;;;;;;6.43;3.88;;;27.30;53.40;;;;;;4959528;28;20031;-62
2021/06/08 00:32:18;;;;;;;7.32;3.60;;;27.30;53.40;;;;;;4926942;29;20460;-63
2021/06/08 00:34:44;;;;;;;5.32;4.05;;;27.20;53.30;;;;;;4959261;28;20035;-62
2021/06/08 00:37:10;;;;;;;5.10;3.92;;;27.20;53.30;;;;;;4959848;28;20415;-64
2021/06/08 00:39:37;;;;;;;5.47;3.63;;;27.20;53.30;;;;;;4941987;29;20127;-63
2021/06/08 00:42:03;;;;;;;7.43;4.25;;;27.20;53.40;;;;;;4942022;29;20118;-62
2021/06/08 00:44:29;;;;;;;9.32;4.50;;;27.20;53.40;;;;;;4959144;28;20043;-63
2021/06/08 00:46:55;;;;;;;8.00;4.32;;;27.20;53.30;;;;;;4942567;29;20031;-62
2021/06/08 00:49:21;;;;;;;5.47;3.55;;;27.20;53.30;;;;;;4948406;29;20988;-61
2021/06/08 00:51:47;;;;;;;7.60;4.25;;;27.20;53.30;;;;;;4959395;28;20043;-62
2021/06/08 00:54:13;;;;;;;6.20;4.13;;;27.20;53.30;;;;;;4959547;28;20039;-62
2021/06/08 00:56:41;;;;;;;7.28;3.88;;;27.20;53.30;;;;;;4959695;28;20035;-63
2021/06/08 00:59:08;;;;;;;6.82;4.10;;;27.20;53.30;;;;;;4959037;28;20446;-63
2021/06/08 01:01:35;;;;;;;7.00;3.83;;;27.20;53.30;;;;;;4941759;29;20407;-62
2021/06/08 01:04:05;;;;;;;10.43;4.53;;;27.20;53.30;;;;;;4959819;28;20031;-63
2021/06/08 01:06:35;;;;;;;;;;;27.20;53.30;;;;;;4943892;29;20086;-62
2021/06/08 01:09:01;;;;;;;6.60;3.57;;;27.20;53.50;;;;;;4923396;29;20290;-62
2021/06/08 01:11:27;;;;;;;5.60;3.83;;;27.20;53.30;;;;;;4942758;29;20086;-63
2021/06/08 01:13:53;;;;;;;5.72;3.83;;;27.20;53.20;;;;;;4959377;28;20194;-63
2021/06/08 01:16:20;;;;;;;6.50;4.32;;;27.20;53.30;;;;;;4942037;28;20551;-63
2021/06/08 01:18:46;;;;;;;5.07;3.47;;;27.20;53.80;;;;;;4946453;29;20047;-62
2021/06/08 01:21:13;;;;;;;6.05;4.18;;;27.20;53.30;;;;;;4940386;29;20031;-63
2021/06/08 01:23:40;;;;;;;5.43;3.92;;;27.20;53.40;;;;;;4940213;29;20039;-62
2021/06/08 01:26:07;;;;;;;5.35;3.70;;;27.20;53.40;;;;;;4940086;29;20032;-63
2021/06/08 01:28:35;;;;;;;8.23;3.65;;;27.20;53.40;;;;;;4941182;29;20547;-61
2021/06/08 01:31:08;;;;;;;8.13;4.22;;;27.10;53.40;;;;;;4939541;29;20095;-62
2021/06/08 01:33:39;;;;;;;7.20;3.55;;;27.10;53.30;;;;;;4955380;28;20055;-60
2021/06/08 01:36:07;;;;;;;7.28;4.18;;;27.10;53.20;;;;;;4939050;29;20036;-62
2021/06/08 01:38:37;;;;;;;6.15;4.07;;;27.20;53.30;;;;;;4956090;28;20491;-61
2021/06/08 01:41:03;;;;;;;8.37;3.93;;;27.10;53.10;;;;;;4941768;29;20040;-63
2021/06/08 01:43:29;;;;;;;5.55;3.90;;;27.10;52.90;;;;;;4928466;29;20265;-62
2021/06/08 01:45:55;;;;;;;4.50;3.20;;;27.10;53.00;;;;;;4932124;29;20490;-63
2021/06/08 01:48:21;;;;;;;4.53;3.47;;;27.10;53.00;;;;;;4919835;29;20542;-63
2021/06/08 01:50:50;;;;;;;4.80;3.50;;;27.10;53.00;;;;;;4937494;29;20520;-63
2021/06/08 01:54:00;;;;;;;5.85;3.80;;;27.10;53.00;;;;;;4922518;29;20042;-63
2021/06/08 01:56:30;;;;;;;5.57;3.60;;;27.10;53.10;;;;;;4919185;28;20503;-62
2021/06/08 01:59:23;;;;;;;4.82;3.50;;;27.10;52.80;;;;;;4954935;28;20063;-63
2021/06/08 02:02:07;;;;;;;8.45;3.33;;;27.10;52.80;;;;;;4942664;29;20484;-63
2021/06/08 02:04:45;;;;;;;6.15;3.03;;;27.10;52.80;;;;;;4936902;29;20091;-63
2021/06/08 02:07:20;;;;;;;6.85;3.90;;;27.00;52.70;;;;;;4919210;29;20040;-62
2021/06/08 02:10:24;;;;;;;8.45;3.80;;;27.00;52.60;;;;;;4937148;29;20035;-62
2021/06/08 02:13:03;;;;;;;5.00;3.35;;;27.00;52.70;;;;;;4934917;29;20524;-62
2021/06/08 02:15:36;;;;;;;6.82;3.30;;;27.00;52.40;;;;;;4931324;29;20139;-63
2021/06/08 02:18:03;;;;;;;6.80;3.50;;;27.00;52.40;;;;;;4935747;29;20122;-62
2021/06/08 02:20:33;;;;;;;5.20;3.78;;;27.00;52.40;;;;;;4919589;29;20064;-62
2021/06/08 02:23:05;;;;;;;5.53;3.60;;;27.00;52.30;;;;;;4919413;29;20043;-62
2021/06/08 02:25:33;;;;;;;6.63;3.92;;;26.90;52.30;;;;;;4935872;29;20390;-62
2021/06/08 02:28:04;;;;;;;5.13;4.40;;;26.90;52.20;;;;;;4935503;29;20094;-61
2021/06/08 02:30:31;;;;;;;6.72;3.80;;;26.90;52.10;;;;;;4935427;29;20047;-63
2021/06/08 02:32:58;;;;;;;8.70;3.58;;;26.90;52.30;;;;;;4918810;29;20126;-63
2021/06/08 02:35:26;;;;;;;4.53;3.90;;;26.90;52.20;;;;;;4935991;29;20152;-62
2021/06/08 02:37:52;;;;;;;9.35;3.80;;;26.90;52.30;;;;;;4934867;29;20396;-61
2021/06/08 02:40:20;;;;;;;9.70;4.38;;;26.90;52.30;;;;;;4936000;29;20116;-63
2021/06/08 02:42:47;;;;;;;9.65;4.28;;;26.90;52.10;;;;;;4935447;29;20506;-63
2021/06/08 02:45:14;;;;;;;5.90;3.80;;;26.80;51.90;;;;;;4934944;29;20461;-62
2021/06/08 02:47:42;;;;;;;3.65;3.17;;;26.80;51.70;;;;;;4918091;29;20126;-63
2021/06/08 02:50:08;;;;;;;5.28;3.67;;;26.80;51.80;;;;;;4935865;29;20043;-60
2021/06/08 02:52:35;;;;;;;8.02;3.58;;;26.80;51.90;;;;;;4936218;29;20032;-62
2021/06/08 02:55:03;;;;;;;5.97;3.38;;;26.80;52.10;;;;;;4935053;29;20484;-63
2021/06/08 02:57:31;;;;;;;6.45;3.53;;;26.80;52.10;;;;;;4918276;29;20051;-62
2021/06/08 03:00:02;;;;;;;8.85;3.72;;;26.70;52.00;;;;;;4935422;29;20032;-63
2021/06/08 03:02:30;;;;;;;5.20;3.38;;;26.80;51.90;;;;;;4935054;29;20545;-63
2021/06/08 03:05:10;;;;;;;5.85;3.25;;;26.80;52.00;;;;;;4918618;29;20036;-63
2021/06/08 03:07:39;;;;;;;4.75;3.38;;;26.80;51.90;;;;;;4932359;29;20095;-63
2021/06/08 03:10:10;;;;;;;7.28;3.42;;;26.70;51.80;;;;;;4903011;29;20028;-62
2021/06/08 03:12:55;;;;;;;5.55;3.40;;;26.80;51.70;;;;;;4935260;29;20180;-63
2021/06/08 03:15:39;;;;;;;6.50;3.10;;;26.70;51.80;;;;;;4939352;28;20432;-63
2021/06/08 03:18:10;;;;;;;5.40;3.08;;;26.70;51.60;;;;;;4934668;29;20040;-63
2021/06/08 03:20:58;;;;;;;5.15;3.13;;;26.70;51.50;;;;;;4935029;29;20075;-63
2021/06/08 03:23:46;;;;;;;3.42;2.60;;;26.70;51.60;;;;;;4934402;29;20054;-63
2021/06/08 03:26:15;;;;;;;6.22;3.00;;;26.70;51.50;;;;;;4934568;29;20087;-62
2021/06/08 03:28:42;;;;;;;7.15;3.15;;;26.70;51.40;;;;;;4934783;29;20436;-62
2021/06/08 03:31:11;;;;;;;6.18;3.15;;;26.80;51.40;;;;;;4934982;29;20048;-63
2021/06/08 03:33:37;;;;;;;3.35;2.35;;;26.70;51.20;;;;;;4918361;29;20124;-63
2021/06/08 03:36:05;;;;;;;3.13;2.72;;;26.70;51.40;;;;;;4934879;29;20047;-63
2021/06/08 03:38:32;;;;;;;5.40;3.60;;;26.70;51.40;;;;;;4934533;29;20047;-63
2021/06/08 03:40:59;;;;;;;6.60;3.28;;;26.70;51.30;;;;;;4934775;29;20076;-63
2021/06/08 03:43:25;;;;;;;5.10;3.25;;;26.70;51.30;;;;;;4934075;29;20503;-63
2021/06/08 03:45:52;;;;;;;4.00;3.47;;;26.70;51.30;;;;;;4934498;29;20036;-63
2021/06/08 03:48:19;;;;;;;7.72;3.03;;;26.70;51.00;;;;;;4901820;29;20043;-61
2021/06/08 03:50:49;;;;;;;5.78;2.85;;;26.70;51.20;;;;;;4933787;29;20118;-62
2021/06/08 03:53:15;;;;;;;3.28;2.92;;;26.70;51.10;;;;;;4934221;29;20063;-62
2021/06/08 03:55:42;;;;;;;5.38;2.92;;;26.70;51.00;;;;;;4948778;28;20105;-61
2021/06/08 03:58:14;;;;;;;7.93;3.00;;;26.70;51.10;;;;;;4934454;29;20389;-62
2021/06/08 04:00:45;;;;;;;4.22;2.85;;;26.70;51.00;;;;;;4933942;29;20539;-62
2021/06/08 04:03:13;;;;;;;7.10;3.33;;;26.70;51.00;;;;;;4918156;29;20053;-61
2021/06/08 04:05:40;;;;;;;4.40;2.72;;;26.70;51.00;;;;;;4934728;29;20035;-63
2021/06/08 04:08:10;;;;;;;5.10;2.90;;;26.70;51.00;;;;;;4934212;29;20107;-63
2021/06/08 04:10:38;;;;;;;6.13;3.00;;;26.70;51.00;;;;;;4934070;29;20028;-64
2021/06/08 04:13:05;;;;;;;3.75;2.80;;;26.70;50.90;;;;;;4934153;29;20063;-62
2021/06/08 04:15:32;;;;;;;3.92;2.60;;;26.70;50.90;;;;;;4934450;29;20079;-62
2021/06/08 04:17:59;;;;;;;4.28;2.65;;;26.70;50.90;;;;;;4916747;29;20051;-64
2021/06/08 04:20:28;;;;;;;5.10;3.15;;;26.70;51.40;;;;;;4933979;29;20042;-62
2021/06/08 04:22:58;;;;;;;3.40;2.50;;;26.70;50.70;;;;;;4901535;29;20040;-62
2021/06/08 04:25:26;;;;;;;5.70;3.20;;;26.60;50.80;;;;;;4933351;29;20035;-63
2021/06/08 04:27:52;;;;;;;4.60;2.90;;;26.70;50.80;;;;;;4917351;29;20084;-63
2021/06/08 04:30:18;;;;;;;5.50;2.90;;;26.70;50.80;;;;;;4917415;29;20042;-63
2021/06/08 04:32:46;;;;;;;5.85;2.97;;;26.60;50.70;;;;;;4934074;29;20035;-62
2021/06/08 04:35:14;;;;;;;3.80;2.63;;;26.60;50.60;;;;;;4934432;29;20171;-61
2021/06/08 04:37:40;;;;;;;5.00;3.17;;;26.70;50.50;;;;;;4917408;29;20408;-63
2021/06/08 04:40:09;;;;;;;4.20;3.00;;;26.70;50.60;;;;;;4933994;29;20353;-63
2021/06/08 04:42:39;;;;;;;7.05;2.75;;;26.70;50.30;;;;;;4934102;29;20039;-61
2021/06/08 04:45:06;;;;;;;6.65;2.95;;;26.60;50.20;;;;;;4932055;29;20043;-61
2021/06/08 04:47:32;;;;;;;3.88;2.85;;;26.60;50.40;;;;;;4933314;29;20040;-63
2021/06/08 04:49:57;;;;;;;5.03;2.70;;;26.60;50.40;;;;;;4916781;29;20028;-63
2021/06/08 04:52:23;;;;;;;5.35;2.20;;;26.60;50.30;;;;;;4916324;29;20781;-63
2021/06/08 04:54:49;;;;;;;5.25;2.50;;;26.60;50.30;;;;;;4933321;29;20138;-63
2021/06/08 04:57:16;;;;;;;5.45;2.80;;;26.60;50.30;;;;;;4916490;29;20546;-61
2021/06/08 05:00:01;;;;;;;8.57;2.42;;;26.60;50.20;;;;;;4916207;29;20040;-62
2021/06/08 05:02:44;;;;;;;3.33;2.22;;;26.60;49.80;;;;;;4933890;29;20050;-63
2021/06/08 05:05:20;;;;;;;7.95;2.60;;;26.60;49.60;;;;;;4917453;29;20099;-62
2021/06/08 05:07:51;;;;;;;10.20;9.10;;;26.60;49.50;;;;;;4934628;29;20043;-61
2021/06/08 05:10:20;;;;;;;32.03;28.70;;;26.50;49.50;;;;;;4920412;29;20047;-62
2021/06/08 05:12:48;;;;;;;15.85;13.75;;;26.50;49.50;;;;;;4937151;29;20119;-59
2021/06/08 05:15:17;;;;;;;21.42;18.55;;;26.50;49.20;;;;;;4919076;29;20131;-62
2021/06/08 05:17:46;;;;;;;20.38;14.10;;;26.50;49.10;;;;;;4935908;29;20056;-62
2021/06/08 05:20:13;;;;;;;13.57;11.02;;;26.50;49.00;;;;;;4937502;29;20036;-63
2021/06/08 05:22:39;;;;;;;15.88;10.38;;;26.50;49.10;;;;;;4936905;29;20059;-63
2021/06/08 05:25:08;;;;;;;16.45;14.57;;;26.50;49.20;;;;;;4937043;29;20115;-62
2021/06/08 05:27:34;;;;;;;16.60;13.60;;;26.40;49.20;;;;;;4937400;29;20035;-62
2021/06/08 05:30:01;;;;;;;13.50;8.88;;;26.40;49.50;;;;;;4937325;29;20492;-62
2021/06/08 05:32:28;;;;;;;10.90;6.50;;;26.30;49.30;;;;;;4937289;29;20480;-63
2021/06/08 05:34:54;;;;;;;12.60;8.55;;;26.30;49.30;;;;;;4920201;29;20048;-62
2021/06/08 05:37:22;;;;;;;9.18;6.95;;;26.30;49.40;;;;;;4937079;29;20140;-63
2021/06/08 05:39:48;;;;;;;8.73;4.90;;;26.30;49.30;;;;;;4936782;29;20095;-63
2021/06/08 05:42:20;;;;;;;13.63;4.78;;;26.30;49.30;;;;;;4937552;29;20046;-63
2021/06/08 05:44:47;;;;;;;6.80;4.95;;;26.20;49.10;;;;;;4921037;29;20512;-62
2021/06/08 05:47:13;;;;;;;8.63;4.88;;;26.30;49.30;;;;;;4918667;29;20032;-62
2021/06/08 05:49:40;;;;;;;9.90;4.10;;;26.20;49.20;;;;;;4936511;29;20506;-63
2021/06/08 05:52:07;;;;;;;6.15;4.10;;;26.20;49.20;;;;;;4936210;29;20042;-63
2021/06/08 05:54:35;;;;;;;7.72;4.47;;;26.20;49.40;;;;;;4937066;29;20039;-63
2021/06/08 05:57:01;;;;;;;10.80;4.10;;;26.20;49.30;;;;;;4935429;29;20020;-63
2021/06/08 05:59:28;;;;;;;18.55;4.40;;;26.20;49.10;;;;;;4936224;29;20043;-62
2021/06/08 06:01:54;;;;;;;16.95;4.32;;;26.20;49.20;;;;;;4935294;29;20043;-62
2021/06/08 06:04:24;;;;;;;17.23;3.83;;;26.10;49.20;;;;;;4918623;29;20036;-62
2021/06/08 06:06:51;;;;;;;10.05;3.75;;;26.20;49.40;;;;;;4933398;29;20485;-62
2021/06/08 06:09:21;;;;;;;11.38;4.00;;;26.10;49.40;;;;;;4935833;29;20038;-63
2021/06/08 06:11:51;;;;;;;15.13;4.05;;;26.10;49.40;;;;;;4936094;29;20051;-62
2021/06/08 06:14:21;;;;;;;14.13;3.67;;;26.10;49.50;;;;;;4936434;29;20396;-63
2021/06/08 06:16:51;;;;;;;13.50;3.70;;;26.20;49.70;;;;;;4919882;29;20050;-63
2021/06/08 06:19:17;;;;;;;9.70;4.20;;;26.10;49.70;;;;;;4919194;29;20103;-63
2021/06/08 06:21:44;;;;;;;12.00;4.07;;;26.20;49.70;;;;;;4934560;29;20040;-63
2021/06/08 06:24:12;;;;;;;10.70;4.72;;;26.20;49.80;;;;;;4935455;29;20042;-62
2021/06/08 06:26:40;;;;;;;9.82;4.35;;;26.20;49.80;;;;;;4934170;29;20131;-63
2021/06/08 06:29:09;;;;;;;7.35;4.00;;;26.20;49.80;;;;;;4936027;29;20040;-64
2021/06/08 06:31:36;;;;;;;8.15;3.92;;;26.20;49.90;;;;;;4935409;29;20551;-64
2021/06/08 06:34:02;;;;;;;9.15;4.75;;;26.20;50.00;;;;;;4935683;29;20028;-64
2021/06/08 06:36:32;;;;;;;12.40;5.78;;;26.20;49.90;;;;;;4935164;29;20028;-62
2021/06/08 06:39:19;;;;;;;7.45;4.38;;;26.30;50.00;;;;;;4918782;29;20048;-63
2021/06/08 06:41:49;;;;;;;11.80;4.70;;;26.30;50.00;;;;;;4918481;29;20047;-63
2021/06/08 06:44:19;;;;;;;5.03;3.73;;;26.30;49.70;;;;;;4918346;29;20075;-62
2021/06/08 06:46:47;;;;;;;4.80;3.20;;;26.30;49.70;;;;;;4932623;29;20032;-63
2021/06/08 06:49:13;;;;;;;9.25;5.25;;;26.30;49.50;;;;;;4934222;29;20106;-64
2021/06/08 06:51:42;;;;;;;10.23;7.95;;;26.30;49.40;;;;;;4935376;29;20035;-64
2021/06/08 06:54:09;;;;;;;8.13;6.55;;;26.30;49.40;;;;;;4935991;29;20122;-63
2021/06/08 06:56:35;;;;;;;9.52;8.32;;;26.40;49.40;;;;;;4935333;29;20024;-62
2021/06/08 06:59:04;;;;;;;10.60;6.45;;;26.30;49.40;;;;;;4934343;29;20515;-63
2021/06/08 07:01:30;;;;;;;9.07;6.40;;;26.30;49.30;;;;;;4934689;29;20110;-63
2021/06/08 07:03:58;;;;;;;8.45;3.75;;;26.40;49.40;;;;;;4935609;29;20051;-63
2021/06/08 07:06:25;;;;;;;6.20;4.03;;;26.40;49.40;;;;;;4918610;29;20094;-62
2021/06/08 07:08:53;;;;;;;6.90;4.00;;;26.40;49.40;;;;;;4935261;29;20052;-63
2021/06/08 07:11:20;;;;;;;6.47;3.53;;;26.40;49.40;;;;;;4918562;29;20032;-63
2021/06/08 07:13:47;;;;;;;6.65;3.25;;;26.50;49.50;;;;;;4935008;29;20039;-63
2021/06/08 07:16:18;;;;;;;10.07;3.55;;;26.50;49.40;;;;;;4935501;29;20048;-63
2021/06/08 07:18:47;;;;;;;9.13;3.90;;;26.50;49.50;;;;;;4918351;29;20051;-63
2021/06/08 07:21:16;;;;;;;7.25;3.92;;;26.50;49.60;;;;;;4935094;29;20439;-64
2021/06/08 07:23:45;;;;;;;6.53;3.30;;;26.60;49.60;;;;;;4918127;29;20038;-63
2021/06/08 07:26:13;;;;;;;6.85;3.70;;;26.60;49.60;;;;;;4917851;29;20170;-64
2021/06/08 07:28:40;;;;;;;6.85;3.95;;;26.60;49.70;;;;;;4935125;29;20055;-64
2021/06/08 07:31:06;;;;;;;7.63;3.38;;;26.70;49.80;;;;;;4933968;29;20111;-64
2021/06/08 07:34:03;;;;;;;4.80;3.55;;;26.70;49.80;;;;;;4917561;29;20445;-64
2021/06/08 07:36:37;;;;;;;7.45;4.15;;;26.70;49.80;;;;;;4933450;29;20036;-64
2021/06/08 07:39:10;;;;;;;9.40;4.30;;;26.80;49.70;;;;;;4934561;29;20054;-65
2021/06/08 07:41:42;;;;;;;10.35;3.70;;;26.90;49.80;;;;;;4934457;29;20035;-64
2021/06/08 07:44:14;;;;;;;7.78;5.32;;;26.90;49.70;;;;;;4917885;29;20440;-64
2021/06/08 07:46:41;;;;;;;10.63;6.50;;;27.00;49.70;;;;;;4934851;29;20051;-65
2021/06/08 07:49:08;;;;;;;9.38;4.75;;;27.00;49.70;;;;;;4935095;29;20039;-65
2021/06/08 07:51:35;;;;;;;10.18;3.78;;;27.10;49.60;;;;;;4934465;29;20042;-64
2021/06/08 07:54:02;;;;;;;7.78;2.70;;;27.10;49.40;;;;;;4917686;29;20032;-64
2021/06/08 07:56:29;;;;;;;3.95;2.40;;;27.20;48.80;;;;;;4934413;29;20035;-63
2021/06/08 07:58:55;;;;;;;10.68;2.97;;;27.20;48.70;;;;;;4934747;29;20042;-61
2021/06/08 08:01:21;;;;;;;10.68;2.92;;;27.20;48.30;;;;;;4949397;28;20104;-64
2021/06/08 08:03:48;;;;;;;5.00;1.90;;;27.20;48.40;;;;;;4934546;29;20099;-65
2021/06/08 08:06:17;;;;;;;7.53;2.50;;;27.20;48.70;;;;;;4934598;29;20071;-63
2021/06/08 08:08:44;;;;;;;8.13;3.42;;;27.20;48.80;;;;;;4934929;29;20111;-64
2021/06/08 08:11:13;;;;;;;8.40;3.22;;;27.30;48.80;;;;;;4934934;29;20047;-64
2021/06/08 08:13:46;;;;;;;9.10;3.17;;;27.30;48.80;;;;;;4917418;29;20028;-65
2021/06/08 08:17:00;;;;;;;5.90;2.72;;;27.30;48.60;;;;;;4934323;28;20079;-65
2021/06/08 08:19:26;;;;;;;6.90;2.40;;;27.30;49.00;;;;;;4934620;29;20051;-62
2021/06/08 08:21:52;;;;;;;8.65;3.17;;;27.40;49.10;;;;;;4917747;29;20118;-64
2021/06/08 08:24:18;;;;;;;6.90;2.50;;;27.40;49.10;;;;;;4934507;29;20451;-64
2021/06/08 08:26:45;;;;;;;6.13;2.72;;;27.40;49.30;;;;;;4932789;29;20379;-64
2021/06/08 08:29:11;;;;;;;9.65;3.35;;;27.40;49.40;;;;;;4934514;29;20094;-64
2021/06/08 08:31:37;;;;;;;3.00;2.15;;;27.50;49.20;;;;;;4901433;29;20038;-63
2021/06/08 08:34:05;;;;;;;8.32;2.50;;;27.50;49.20;;;;;;4934198;29;20440;-65
2021/06/08 08:36:37;;;;;;;7.40;3.13;;;27.50;49.20;;;;;;4934264;29;20137;-65
2021/06/08 08:39:08;;;;;;;7.30;2.80;;;27.60;49.30;;;;;;4917487;29;20098;-65
2021/06/08 08:41:35;;;;;;;11.38;8.98;;;27.60;49.10;;;;;;4918722;29;20468;-65
2021/06/08 08:44:02;;;;;;;11.18;9.75;;;27.70;49.20;;;;;;4938072;29;20100;-64
2021/06/08 08:46:29;;;;;;;14.02;11.80;;;27.70;49.20;;;;;;4937908;29;20501;-63
2021/06/08 08:48:56;;;;;;;11.95;6.70;;;27.80;49.40;;;;;;4938053;29;20035;-65
2021/06/08 08:51:25;;;;;;;6.20;3.40;;;27.90;48.90;;;;;;4919809;29;20048;-65
2021/06/08 08:53:58;;;;;;;7.70;2.90;;;27.90;48.70;;;;;;4936381;29;20480;-65
2021/06/08 08:56:38;;;;;;;4.85;2.08;;;28.00;47.90;;;;;;4937386;29;20040;-65
2021/06/08 08:59:07;;;;;;;;;;;28.00;48.00;;;;;;4937232;29;20058;-64
2021/06/08 09:01:37;;;;;;;7.95;2.20;;;28.00;48.00;;;;;;4936009;29;19970;-63
2021/06/08 09:04:05;;;;;;;9.93;2.55;;;28.10;47.20;;;;;;4918940;29;20123;-63
2021/06/08 09:06:32;;;;;;;10.38;2.70;;;28.10;47.50;;;;;;4936944;29;20404;-64
2021/06/08 09:09:00;;;;;;;7.40;2.38;;;28.10;47.20;;;;;;4936792;29;20110;-62
2021/06/08 09:11:27;;;;;;;8.25;2.85;;;28.10;47.40;;;;;;4936992;29;20131;-68
2021/06/08 09:13:53;;;;;;;7.38;2.35;;;28.10;47.40;;;;;;4937177;29;20028;-68
2021/06/08 09:16:22;;;;;;;4.40;2.35;;;28.10;47.00;;;;;;4953230;28;20062;-66
2021/06/08 09:21:43;;;;;;;7.50;2.58;;;28.10;47.00;;;;;;4935682;29;20071;-67
2021/06/08 09:24:21;;;;;;;;;;;28.10;47.30;;;;;;4937203;29;20078;-68
2021/06/08 09:26:52;;;;;;;3.45;2.20;;;28.10;47.70;;;;;;4936698;29;19911;-67
2021/06/08 09:29:44;;;;;;;3.40;1.92;;;28.20;47.10;;;;;;4936507;29;20063;-67
2021/06/08 09:32:27;;;;;;;6.65;2.17;;;28.20;46.80;;;;;;4936742;29;20571;-68
2021/06/08 09:34:54;;;;;;;5.90;2.28;;;28.20;46.70;;;;;;4937130;29;20119;-67
2021/06/08 09:37:37;;;;;;;4.20;1.95;;;28.20;47.00;;;;;;4919762;29;20048;-67
2021/06/08 09:40:17;;;;;;;4.95;2.45;;;28.30;47.10;;;;;;4937115;29;20039;-68
2021/06/08 09:42:45;;;;;;;3.28;2.15;;;28.30;46.90;;;;;;4936809;29;20047;-68
2021/06/08 09:45:22;;;;;;;9.52;2.55;;;28.40;47.20;;;;;;4936876;29;20036;-68
2021/06/08 09:48:01;;;;;;;4.75;2.30;;;28.40;47.10;;;;;;4935751;29;20070;-64
2021/06/08 09:50:34;;;;;;;6.55;2.03;;;28.40;46.00;;;;;;4936877;29;20036;-59
2021/06/08 09:53:26;;;;;;;3.45;2.08;;;28.50;46.20;;;;;;4935985;29;20556;-59
2021/06/08 09:56:06;;;;;;;5.45;3.38;;;28.50;46.60;;;;;;4936643;29;20400;-61
2021/06/08 09:58:34;;;;;;;7.27;5.80;;;28.50;46.30;;;;;;4936551;29;20504;-61
2021/06/08 10:01:23;;;;;;;6.00;5.13;;;28.60;46.60;;;;;;4935960;29;20035;-60
2021/06/08 10:03:57;;;;;;;7.05;3.75;;;28.60;46.50;;;;;;4927944;29;20044;-63
2021/06/08 10:06:24;;;;;;;5.43;3.50;;;28.70;46.50;;;;;;4916338;29;20091;-63
2021/06/08 10:08:57;;;;;;;6.32;3.95;;;28.70;46.50;;;;;;4918608;29;20095;-64
2021/06/08 10:11:35;;;;;;;4.75;2.53;;;28.80;46.90;;;;;;4925453;29;20536;-67
2021/06/08 10:14:20;;;;;;;5.90;2.40;;;28.80;46.30;;;;;;4943979;29;20040;-65
2021/06/08 10:16:59;;;;;;;3.00;1.83;;;28.80;44.60;;;;;;4935106;29;20102;-62
2021/06/08 10:19:26;;;;;;;8.63;2.13;;;28.80;44.70;;;;;;4928165;29;20458;-61
2021/06/08 10:21:53;;;;;;;4.32;1.70;;;28.90;45.20;;;;;;4929117;29;20032;-64
2021/06/08 10:24:25;;;;;;;5.10;1.77;;;28.90;45.20;;;;;;4931582;29;20040;-63
2021/06/08 10:26:53;;;;;;;4.72;1.67;;;28.80;45.10;;;;;;4908473;29;20119;-62
2021/06/08 10:29:27;;;;;;;5.28;2.40;;;28.90;45.00;;;;;;4919540;29;20048;-60
2021/06/08 10:31:55;;;;;;;7.07;2.28;;;28.90;44.60;;;;;;4923083;29;20071;-62
2021/06/08 10:34:21;;;;;;;6.75;1.90;;;28.90;44.70;;;;;;4933052;29;20110;-64
2021/06/08 10:36:48;;;;;;;4.43;1.83;;;29.00;44.90;;;;;;4916537;29;20087;-66
2021/06/08 10:39:16;;;;;;;4.60;1.98;;;29.00;44.90;;;;;;4926490;29;20076;-61
2021/06/08 10:41:44;;;;;;;5.15;1.88;;;29.00;44.70;;;;;;4928246;29;20095;-58
2021/06/08 10:44:23;;;;;;;6.18;1.85;;;29.00;44.70;;;;;;4915928;29;20467;-59
2021/06/08 10:46:53;;;;;;;4.55;1.90;;;29.00;44.10;;;;;;4916231;29;20043;-58
2021/06/08 10:49:36;;;;;;;4.88;2.13;;;29.00;44.70;;;;;;4916303;29;20122;-58
2021/06/08 10:52:07;;;;;;;5.05;2.25;;;29.00;44.80;;;;;;4932995;29;20126;-58
2021/06/08 10:54:53;;;;;;;4.78;1.83;;;29.00;44.40;;;;;;4916151;29;20047;-58
2021/06/08 10:57:19;;;;;;;5.72;2.17;;;29.00;44.70;;;;;;4933015;29;20480;-58
2021/06/08 10:59:49;;;;;;;6.72;2.03;;;29.10;44.60;;;;;;4916024;29;20175;-58
2021/06/08 11:02:51;;;;;;;4.63;2.47;;;29.00;44.70;;;;;;4933096;29;20130;-58
2021/06/08 11:05:19;;;;;;;5.55;1.83;;;28.90;44.60;;;;;;4932880;29;20451;-59
2021/06/08 11:07:49;;;;;;;2.28;1.73;;;28.90;44.80;;;;;;4916038;29;20036;-59
2021/06/08 11:10:28;;;;;;;8.30;2.20;;;28.90;45.40;;;;;;4932981;29;20043;-60
2021/06/08 11:13:09;;;;;;;7.50;2.42;;;28.90;45.80;;;;;;4933102;29;20131;-57
2021/06/08 11:15:38;;;;;;;6.22;3.03;;;28.90;45.90;;;;;;4924313;29;20051;-57
2021/06/08 11:18:20;;;;;;;17.52;3.95;;;28.80;46.10;;;;;;4916923;29;20135;-58
2021/06/08 11:21:11;;;;;;;7.35;2.45;;;28.70;46.80;;;;;;4934836;28;20052;-58
2021/06/08 11:23:43;;;;;;;13.35;3.40;;;28.60;45.40;;;;;;4951908;28;20043;-61
2021/06/08 11:26:14;;;;;;;9.07;3.45;;;28.60;46.30;;;;;;4952212;28;20551;-58
2021/06/08 11:28:46;;;;;;;10.35;5.82;;;28.60;46.40;;;;;;4952213;28;20137;-58
2021/06/08 11:31:14;;;;;;;12.43;4.07;;;28.60;46.80;;;;;;4951771;28;20050;-59
2021/06/08 11:33:45;;;;;;;13.73;3.25;;;28.60;46.10;;;;;;4951585;28;20090;-59
2021/06/08 11:36:20;;;;;;;8.13;2.78;;;28.60;46.50;;;;;;4951301;28;20567;-58
2021/06/08 11:38:51;;;;;;;11.90;2.30;;;28.60;46.90;;;;;;4951443;28;20079;-57
2021/06/08 11:41:18;;;;;;;9.02;2.72;;;28.60;46.80;;;;;;4950285;28;20043;-61
2021/06/08 11:43:45;;;;;;;16.02;2.83;;;28.60;46.90;;;;;;4944210;28;20035;-58
2021/06/08 11:46:14;;;;;;;10.57;2.33;;;28.60;47.00;;;;;;4949409;28;20054;-59
2021/06/08 11:49:02;;;;;;;11.55;2.25;;;28.70;46.90;;;;;;4950836;28;20480;-55
2021/06/08 11:51:39;;;;;;;12.55;2.60;;;28.80;46.80;;;;;;4951477;28;20050;-55
2021/06/08 11:54:08;;;;;;;9.07;2.85;;;28.90;46.70;;;;;;4951133;28;20162;-55
2021/06/08 11:57:01;;;;;;;9.80;3.03;;;29.00;46.60;;;;;;4951060;28;20069;-55
2021/06/08 11:59:32;;;;;;;7.13;2.53;;;29.00;46.60;;;;;;4951867;29;20047;-56
2021/06/08 12:02:05;;;;;;;7.05;2.50;;;29.20;46.30;;;;;;4951806;28;20050;-55
2021/06/08 12:04:51;;;;;;;9.70;3.40;;;29.20;45.90;;;;;;4951568;29;20407;-55
2021/06/08 12:07:18;;;;;;;3.50;1.70;;;29.30;46.10;;;;;;4951479;29;20392;-55
2021/06/08 12:09:47;;;;;;;8.50;2.30;;;29.30;46.00;;;;;;4934043;29;20050;-55
2021/06/08 12:12:14;;;;;;;2.97;1.75;;;29.40;46.10;;;;;;4951453;29;20039;-54
2021/06/08 12:14:53;;;;;;;5.40;2.13;;;29.50;46.00;;;;;;4933839;29;20143;-55
2021/06/08 12:17:19;;;;;;;6.03;2.13;;;29.50;45.80;;;;;;4950891;29;20994;-57
2021/06/08 12:19:46;;;;;;;5.15;1.83;;;29.50;45.80;;;;;;4951286;28;20051;-55
2021/06/08 12:22:23;;;;;;;4.25;1.90;;;29.60;45.70;;;;;;4934492;29;20067;-55
2021/06/08 12:25:07;;;;;;;11.02;2.28;;;29.60;45.80;;;;;;4951103;29;20039;-54
2021/06/08 12:27:40;;;;;;;5.40;2.30;;;29.60;46.00;;;;;;4951180;28;20044;-54
2021/06/08 12:30:09;;;;;;;5.00;2.08;;;29.70;45.80;;;;;;4950636;28;20043;-56
2021/06/08 12:32:38;;;;;;;7.82;2.80;;;29.70;46.10;;;;;;4951226;28;20480;-56
2021/06/08 12:35:23;;;;;;;7.57;2.45;;;29.70;46.30;;;;;;4951247;29;20035;-56
2021/06/08 12:37:50;;;;;;;9.10;2.88;;;29.70;46.40;;;;;;4950616;28;20039;-56
2021/06/08 12:40:19;;;;;;;7.93;2.50;;;29.80;46.30;;;;;;4951090;28;20039;-56
2021/06/08 12:42:46;;;;;;;7.32;2.17;;;29.80;46.30;;;;;;4951189;28;20031;-56
2021/06/08 12:45:12;;;;;;;4.32;1.90;;;29.80;46.20;;;;;;4932525;29;20086;-56
2021/06/08 12:47:38;;;;;;;5.93;2.75;;;29.80;46.10;;;;;;4950734;28;20039;-56
2021/06/08 12:50:09;;;;;;;6.30;2.20;;;29.80;46.00;;;;;;4950973;28;20044;-55
2021/06/08 12:52:35;;;;;;;6.20;2.33;;;29.80;46.10;;;;;;4950750;28;20039;-55
2021/06/08 12:55:08;;;;;;;4.80;2.30;;;29.80;46.10;;;;;;4950814;29;20124;-54
2021/06/08 12:57:34;;;;;;;8.30;2.22;;;29.80;46.20;;;;;;4950830;29;20048;-58
2021/06/08 13:00:18;;;;;;;5.97;2.40;;;29.90;46.60;;;;;;4951104;28;20466;-54
2021/06/08 13:02:45;;;;;;;3.90;2.03;;;29.90;45.80;;;;;;4950799;28;20039;-54
2021/06/08 13:05:13;;;;;;;4.88;2.30;;;29.90;45.90;;;;;;4948567;29;20043;-55